createdAt,value
2018-08-24T00:01:59.574Z,2.63
2018-08-24T00:04:27.598Z,2.63
2018-08-24T00:06:55.577Z,2.83
2018-08-24T00:09:23.573Z,2.57
2018-08-24T00:11:51.553Z,2.40
2018-08-24T00:14:19.558Z,2.53
2018-08-24T00:16:47.518Z,2.80
2018-08-24T00:19:16.473Z,2.20
2018-08-24T00:21:45.141Z,2.40
2018-08-24T00:24:13.746Z,2.30
2018-08-24T00:26:41.717Z,2.27
2018-08-24T00:29:10.402Z,2.40
2018-08-24T00:31:39.046Z,2.43
2018-08-24T00:34:07.118Z,2.40
2018-08-24T00:36:35.089Z,2.30
2018-08-24T00:39:03.306Z,2.90
2018-08-24T00:41:31.330Z,2.73
2018-08-24T00:43:59.298Z,2.70
2018-08-24T00:46:27.259Z,2.57
2018-08-24T00:48:55.258Z,2.50
2018-08-24T00:51:23.206Z,2.63
2018-08-24T00:53:51.179Z,2.47
2018-08-24T00:56:19.162Z,2.80
2018-08-24T00:58:47.139Z,3.07
2018-08-24T01:01:15.109Z,4.50
2018-08-24T01:03:43.117Z,3.40
2018-08-24T01:06:11.095Z,3.53
2018-08-24T01:08:39.095Z,3.73
2018-08-24T01:11:07.088Z,3.43
2018-08-24T01:13:35.112Z,3.57
2018-08-24T01:16:03.387Z,7.77
2018-08-24T01:18:36.675Z,4.10
2018-08-24T01:21:04.643Z,3.93
2018-08-24T01:23:33.706Z,4.00
2018-08-24T01:26:01.689Z,4.37
2018-08-24T01:28:30.669Z,6.63
2018-08-24T01:31:06.476Z,4.70
2018-08-24T01:33:34.627Z,5.10
2018-08-24T01:36:02.603Z,4.97
2018-08-24T01:38:30.600Z,4.20
2018-08-24T01:40:58.611Z,4.87
2018-08-24T01:43:26.608Z,8.43
2018-08-24T01:46:00.075Z,5.43
2018-08-24T01:48:28.039Z,5.00
2018-08-24T01:50:56.000Z,6.90
2018-08-24T01:53:24.036Z,5.60
2018-08-24T01:55:51.988Z,5.97
2018-08-24T01:58:19.967Z,6.73
2018-08-24T02:00:48.487Z,5.87
2018-08-24T02:03:16.571Z,6.47
2018-08-24T02:05:44.519Z,7.10
2018-08-24T02:08:12.536Z,6.77
2018-08-24T02:10:40.511Z,6.97
2018-08-24T02:13:13.864Z,6.73
2018-08-24T02:15:45.472Z,5.93
2018-08-24T02:18:18.896Z,6.90
2018-08-24T02:20:52.323Z,6.63
2018-08-24T02:23:20.329Z,7.33
2018-08-24T02:25:48.308Z,6.70
2018-08-24T02:28:16.388Z,8.17
2018-08-24T02:30:44.656Z,6.20
2018-08-24T02:33:12.684Z,8.97
2018-08-24T02:35:40.646Z,6.83
2018-08-24T02:38:08.660Z,10.37
2018-08-24T02:40:36.628Z,8.23
2018-08-24T02:43:04.664Z,7.90
2018-08-24T02:45:32.660Z,9.20
2018-08-24T02:48:00.633Z,7.63
2018-08-24T02:50:28.584Z,8.53
2018-08-24T02:52:56.572Z,8.00
2018-08-24T02:55:24.581Z,8.13
2018-08-24T02:57:52.544Z,7.67
2018-08-24T03:00:20.532Z,12.63
2018-08-24T03:02:48.509Z,7.27
2018-08-24T03:05:16.575Z,8.00
2018-08-24T03:07:44.740Z,8.73
2018-08-24T03:10:12.977Z,7.57
2018-08-24T03:12:41.228Z,8.13
2018-08-24T03:15:09.585Z,7.87
2018-08-24T03:17:43.161Z,7.80
2018-08-24T03:20:11.825Z,12.30
2018-08-24T03:22:40.077Z,8.10
2018-08-24T03:25:08.313Z,8.27
2018-08-24T03:27:36.554Z,8.20
2018-08-24T03:30:04.796Z,9.97
2018-08-24T03:32:33.060Z,7.77
2018-08-24T03:35:01.277Z,9.13
2018-08-24T03:37:29.505Z,12.13
2018-08-24T03:39:57.715Z,9.10
2018-08-24T03:42:25.968Z,12.00
2018-08-24T03:44:54.270Z,11.90
2018-08-24T03:47:22.554Z,16.97
2018-08-24T03:49:50.813Z,8.63
2018-08-24T03:52:19.117Z,9.83
2018-08-24T03:54:47.093Z,9.70
2018-08-24T03:57:15.206Z,9.27
2018-08-24T03:59:43.178Z,9.87
2018-08-24T04:02:12.501Z,8.90
2018-08-24T04:04:40.805Z,10.50
2018-08-24T04:07:08.789Z,9.23
2018-08-24T04:09:36.756Z,8.83
2018-08-24T04:12:04.754Z,10.23
2018-08-24T04:14:32.712Z,10.53
2018-08-24T04:17:06.081Z,13.47
2018-08-24T04:19:34.089Z,9.97
2018-08-24T04:22:02.027Z,9.07
2018-08-24T04:24:30.058Z,8.63
2018-08-24T04:26:58.026Z,10.87
2018-08-24T04:29:26.014Z,11.90
2018-08-24T04:31:54.025Z,10.90
2018-08-24T04:34:21.992Z,11.77
2018-08-24T04:36:50.002Z,11.17
2018-08-24T04:39:18.221Z,14.70
2018-08-24T04:41:46.459Z,10.07
2018-08-24T04:44:14.802Z,10.93
2018-08-24T04:46:43.073Z,10.17
2018-08-24T04:49:12.317Z,11.50
2018-08-24T04:51:40.426Z,11.60
2018-08-24T04:54:08.417Z,14.00
2018-08-24T04:56:36.478Z,13.50
2018-08-24T04:59:04.462Z,14.83
2018-08-24T05:01:32.458Z,15.20
2018-08-24T05:04:00.782Z,16.97
2018-08-24T05:06:28.931Z,15.87
2018-08-24T05:08:56.938Z,16.30
2018-08-24T05:11:24.924Z,17.67
2018-08-24T05:13:53.510Z,17.10
2018-08-24T05:16:21.554Z,16.83
2018-08-24T05:18:49.527Z,17.03
2018-08-24T05:21:17.536Z,17.23
2018-08-24T05:23:45.506Z,20.03
2018-08-24T05:26:13.558Z,21.23
2018-08-24T05:28:41.547Z,23.13
2018-08-24T05:31:09.543Z,24.53
2018-08-24T05:33:37.526Z,24.00
2018-08-24T05:36:05.980Z,24.83
2018-08-24T05:38:34.214Z,24.97
2018-08-24T05:41:02.407Z,26.27
2018-08-24T05:43:30.678Z,33.35
2018-08-24T05:45:58.907Z,28.77
2018-08-24T05:48:27.115Z,28.70
2018-08-24T05:50:55.351Z,29.97
2018-08-24T05:53:23.566Z,32.50
2018-08-24T05:55:51.788Z,31.80
2018-08-24T05:58:20.016Z,33.50
2018-08-24T06:00:48.066Z,33.93
2018-08-24T06:03:16.020Z,35.87
2018-08-24T06:05:49.433Z,36.33
2018-08-24T06:08:17.339Z,36.57
2018-08-24T06:10:45.294Z,37.97
2018-08-24T06:13:18.683Z,37.17
2018-08-24T06:15:48.324Z,37.60
2018-08-24T06:18:16.340Z,38.00
2018-08-24T06:20:44.443Z,38.47
2018-08-24T06:23:12.808Z,34.73
2018-08-24T06:25:40.844Z,39.50
2018-08-24T06:28:08.912Z,37.90
2018-08-24T06:30:36.874Z,39.43
2018-08-24T06:33:04.879Z,40.07
2018-08-24T06:35:33.116Z,40.73
2018-08-24T06:38:01.374Z,38.90
2018-08-24T06:40:29.725Z,39.23
2018-08-24T06:42:58.169Z,38.67
2018-08-24T06:45:26.436Z,39.30
2018-08-24T06:47:54.406Z,39.87
2018-08-24T06:50:22.432Z,39.07
2018-08-24T06:52:50.472Z,39.37
2018-08-24T06:55:18.460Z,35.83
2018-08-24T06:57:46.537Z,36.87
2018-08-24T07:00:14.521Z,37.47
2018-08-24T07:02:42.472Z,33.10
2018-08-24T07:05:10.440Z,36.13
2018-08-24T07:07:38.405Z,36.90
2018-08-24T07:10:06.380Z,37.60
2018-08-24T07:12:34.377Z,36.33
2018-08-24T07:15:02.393Z,36.90
2018-08-24T07:17:35.773Z,35.87
2018-08-24T07:20:03.734Z,36.83
2018-08-24T07:22:31.768Z,36.10
2018-08-24T07:24:59.761Z,39.23
2018-08-24T07:27:27.688Z,31.47
2018-08-24T07:29:56.123Z,30.40
2018-08-24T07:32:24.502Z,28.80
2018-08-24T07:34:52.481Z,31.03
2018-08-24T07:37:20.470Z,29.90
2018-08-24T07:39:48.461Z,29.03
2018-08-24T07:42:16.518Z,31.83
2018-08-24T07:44:50.159Z,27.17
2018-08-24T07:47:18.133Z,24.03
2018-08-24T07:49:46.095Z,20.90
2018-08-24T07:52:14.086Z,18.63
2018-08-24T07:54:42.050Z,20.97
2018-08-24T07:57:10.146Z,17.30
2018-08-24T07:59:37.971Z,19.73
2018-08-24T08:02:06.054Z,17.60
2018-08-24T08:04:34.130Z,15.53
2018-08-24T08:07:03.289Z,23.07
2018-08-24T08:09:32.245Z,15.07
2018-08-24T08:12:06.333Z,14.27
2018-08-24T08:14:35.521Z,15.33
2018-08-24T08:17:04.448Z,16.63
2018-08-24T08:19:32.550Z,13.00
2018-08-24T08:22:01.013Z,11.20
2018-08-24T08:24:29.074Z,11.13
2018-08-24T08:26:57.049Z,18.63
2018-08-24T08:30:29.102Z,10.20
2018-08-24T08:32:57.090Z,9.40
2018-08-24T08:35:25.070Z,12.57
2018-08-24T08:37:53.270Z,11.37
2018-08-24T08:40:21.584Z,13.13
2018-08-24T08:42:49.877Z,13.57
2018-08-24T08:45:18.094Z,20.33
2018-08-24T08:47:46.294Z,47.83
2018-08-24T08:50:14.491Z,15.47
2018-08-24T08:52:42.678Z,32.77
2018-08-24T08:55:10.908Z,11.93
2018-08-24T08:57:39.162Z,50.17
2018-08-24T09:00:07.398Z,19.43
2018-08-24T09:02:35.674Z,18.27
2018-08-24T09:05:04.046Z,15.40
2018-08-24T09:07:32.003Z,16.97
2018-08-24T09:09:59.998Z,10.47
2018-08-24T09:12:27.970Z,93.83
2018-08-24T09:14:56.022Z,20.73
2018-08-24T09:17:29.399Z,15.83
2018-08-24T09:20:03.127Z,10.07
2018-08-24T09:22:36.675Z,14.80
2018-08-24T09:25:10.195Z,9.97
2018-08-24T09:27:42.656Z,9.87
2018-08-24T09:30:13.858Z,9.00
2018-08-24T09:32:42.220Z,17.43
2018-08-24T09:35:10.087Z,14.10
2018-08-24T09:37:39.106Z,11.80
2018-08-24T09:40:08.091Z,13.53
2018-08-24T09:42:36.043Z,8.63
2018-08-24T09:45:04.543Z,15.77
2018-08-24T09:47:38.083Z,8.67
2018-08-24T09:50:11.923Z,10.53
2018-08-24T09:52:40.220Z,14.23
2018-08-24T09:55:08.456Z,61.87
2018-08-24T09:57:36.419Z,60.73
2018-08-24T10:00:04.817Z,9.07
2018-08-24T10:02:38.509Z,8.03
2018-08-24T10:06:10.791Z,32.33
2018-08-24T10:08:44.299Z,18.97
2018-08-24T10:11:12.320Z,15.97
2018-08-24T10:13:40.352Z,16.13
2018-08-24T10:16:08.351Z,8.77
2018-08-24T10:18:36.327Z,10.53
2018-08-24T10:21:04.584Z,9.13
2018-08-24T10:23:32.727Z,32.53
2018-08-24T10:26:00.964Z,10.87
2018-08-24T10:28:28.956Z,5.93
2018-08-24T10:30:56.932Z,29.20
2018-08-24T10:33:24.965Z,8.40
2018-08-24T10:35:52.964Z,6.40
2018-08-24T10:38:22.209Z,8.47
2018-08-24T10:40:50.515Z,5.47
2018-08-24T10:43:18.687Z,5.63
2018-08-24T10:45:46.891Z,4.13
2018-08-24T10:48:15.840Z,6.05
2018-08-24T10:50:44.070Z,5.07
2018-08-24T10:53:12.028Z,3.97
2018-08-24T10:55:40.344Z,7.27
2018-08-24T10:58:08.494Z,4.40
2018-08-24T11:00:36.708Z,4.93
2018-08-24T11:03:05.049Z,4.80
2018-08-24T11:05:33.075Z,8.20
2018-08-24T11:08:01.269Z,3.47
2018-08-24T11:10:29.564Z,8.67
2018-08-24T11:12:57.824Z,9.93
2018-08-24T11:15:26.205Z,9.25
2018-08-24T11:17:59.805Z,6.47
2018-08-24T11:20:28.041Z,6.00
2018-08-24T11:22:56.270Z,3.53
2018-08-24T11:25:24.537Z,5.27
2018-08-24T11:27:52.505Z,4.33
2018-08-24T11:30:20.929Z,6.23
2018-08-24T11:32:49.041Z,3.10
2018-08-24T11:35:17.075Z,3.73
2018-08-24T11:37:45.058Z,5.53
2018-08-24T11:40:13.055Z,6.23
2018-08-24T11:42:41.089Z,4.97
2018-08-24T11:45:09.089Z,9.93
2018-08-24T11:47:37.078Z,7.63
2018-08-24T11:50:05.290Z,3.77
2018-08-24T11:52:33.346Z,4.43
2018-08-24T11:55:01.522Z,3.70
2018-08-24T11:57:29.494Z,4.83
2018-08-24T11:59:57.517Z,3.17
2018-08-24T12:02:25.426Z,4.10
2018-08-24T12:04:53.438Z,6.53
2018-08-24T12:07:21.573Z,8.57
2018-08-24T12:09:49.575Z,6.57
2018-08-24T12:12:17.784Z,5.93
2018-08-24T12:14:45.730Z,5.17
2018-08-24T12:17:18.038Z,5.97
2018-08-24T12:19:46.142Z,3.70
2018-08-24T12:22:45.662Z,7.33
2018-08-24T12:25:13.668Z,6.83
2018-08-24T12:27:41.646Z,4.43
2018-08-24T12:30:09.940Z,3.40
2018-08-24T12:32:38.171Z,7.83
2018-08-24T12:35:06.175Z,4.43
2018-08-24T12:37:39.759Z,5.70
2018-08-24T12:40:07.739Z,4.83
2018-08-24T12:42:35.767Z,4.00
2018-08-24T12:45:03.833Z,6.27
2018-08-24T12:47:32.095Z,6.00
2018-08-24T12:50:00.075Z,7.03
2018-08-24T12:52:28.068Z,3.27
2018-08-24T12:54:56.100Z,2.80
2018-08-24T12:57:28.315Z,3.87
2018-08-24T12:59:56.650Z,4.37
2018-08-24T13:02:24.864Z,4.07
2018-08-24T13:04:52.880Z,3.40
2018-08-24T13:07:21.132Z,12.90
2018-08-24T13:09:49.351Z,9.07
2018-08-24T13:12:17.907Z,2.83
2018-08-24T13:14:46.226Z,4.50
2018-08-24T13:17:14.492Z,4.73
2018-08-24T13:19:42.744Z,4.80
2018-08-24T13:22:10.823Z,5.97
2018-08-24T13:24:38.850Z,5.83
2018-08-24T13:27:06.902Z,5.70
2018-08-24T13:29:34.875Z,3.80
2018-08-24T13:32:02.943Z,7.33
2018-08-24T13:34:30.946Z,4.20
2018-08-24T13:36:58.967Z,5.67
2018-08-24T13:39:26.955Z,7.57
2018-08-24T13:41:55.035Z,10.70
2018-08-24T13:44:23.012Z,3.70
2018-08-24T13:46:51.279Z,4.27
2018-08-24T13:49:19.508Z,5.47
2018-08-24T13:51:47.765Z,5.77
2018-08-24T13:54:16.352Z,4.10
2018-08-24T13:56:44.445Z,5.13
2018-08-24T13:59:12.428Z,2.47
2018-08-24T14:01:40.517Z,3.50
2018-08-24T14:04:08.837Z,7.07
2018-08-24T14:06:37.137Z,9.17
2018-08-24T14:09:06.528Z,3.97
2018-08-24T14:11:34.533Z,4.67
2018-08-24T14:14:02.521Z,2.57
2018-08-24T14:16:30.737Z,6.77
2018-08-24T14:18:58.985Z,3.80
2018-08-24T14:21:27.262Z,5.03
2018-08-24T14:23:55.207Z,5.23
2018-08-24T14:26:23.191Z,3.77
2018-08-24T14:28:51.177Z,3.97
2018-08-24T14:31:19.152Z,3.93
2018-08-24T14:33:47.185Z,3.60
2018-08-24T14:36:15.874Z,5.20
2018-08-24T14:38:44.824Z,5.40
2018-08-24T14:41:12.872Z,3.33
2018-08-24T14:43:40.861Z,3.43
2018-08-24T14:46:09.128Z,4.17
2018-08-24T14:48:37.149Z,3.27
2018-08-24T14:51:05.180Z,3.77
2018-08-24T14:53:33.161Z,5.13
2018-08-24T14:56:01.253Z,6.10
2018-08-24T14:58:29.256Z,3.87
2018-08-24T15:00:57.556Z,4.47
2018-08-24T15:03:25.553Z,4.90
2018-08-24T15:05:53.537Z,7.00
2018-08-24T15:08:21.529Z,5.17
2018-08-24T15:10:49.535Z,87.37
2018-08-24T15:13:17.625Z,4.30
2018-08-24T15:15:45.906Z,5.67
2018-08-24T15:18:13.876Z,7.13
2018-08-24T15:20:41.849Z,1.90
2018-08-24T15:23:09.895Z,4.90
2018-08-24T15:25:37.873Z,7.77
2018-08-24T15:28:05.861Z,5.63
2018-08-24T15:30:33.961Z,5.90
2018-08-24T15:33:01.933Z,6.27
2018-08-24T15:35:29.890Z,2.60
2018-08-24T15:37:59.193Z,6.53
2018-08-24T15:40:27.186Z,10.53
2018-08-24T15:42:55.137Z,3.77
2018-08-24T15:45:23.102Z,6.63
2018-08-24T15:47:51.306Z,5.90
2018-08-24T15:50:19.439Z,51.47
2018-08-24T15:52:47.425Z,4.90
2018-08-24T15:55:15.418Z,4.37
2018-08-24T15:57:43.409Z,5.23
2018-08-24T16:00:11.488Z,3.57
2018-08-24T16:02:39.657Z,2.33
2018-08-24T16:05:07.878Z,4.07
2018-08-24T16:07:38.117Z,4.37
2018-08-24T16:10:07.304Z,5.17
2018-08-24T16:12:35.770Z,4.07
2018-08-24T16:15:04.006Z,2.83
2018-08-24T16:17:32.273Z,4.37
2018-08-24T16:20:00.625Z,4.67
2018-08-24T16:22:28.701Z,4.07
2018-08-24T16:24:56.682Z,3.00
2018-08-24T16:27:25.253Z,5.83
2018-08-24T16:29:54.993Z,5.93
2018-08-24T16:32:23.008Z,4.97
2018-08-24T16:34:51.861Z,4.63
2018-08-24T16:37:20.121Z,4.83
2018-08-24T16:39:48.458Z,4.50
2018-08-24T16:42:17.562Z,4.00
2018-08-24T16:44:46.075Z,4.00
2018-08-24T16:47:14.077Z,7.60
2018-08-24T16:49:42.059Z,5.33
2018-08-24T16:52:10.079Z,4.30
2018-08-24T16:54:38.086Z,3.00
2018-08-24T16:57:06.566Z,3.43
2018-08-24T16:59:34.523Z,3.57
2018-08-24T17:02:02.723Z,4.70
2018-08-24T17:04:30.730Z,6.03
2018-08-24T17:06:58.732Z,4.83
2018-08-24T17:09:26.743Z,4.03
2018-08-24T17:11:54.726Z,6.53
2018-08-24T17:14:22.836Z,4.50
2018-08-24T17:16:50.839Z,5.20
2018-08-24T17:19:18.827Z,3.03
2018-08-24T17:21:46.918Z,4.67
2018-08-24T17:24:14.987Z,5.23
2018-08-24T17:29:13.615Z,3.03
2018-08-24T17:31:41.639Z,3.13
2018-08-24T17:34:09.707Z,4.03
2018-08-24T17:36:37.695Z,6.13
2018-08-24T17:39:08.600Z,3.90
2018-08-24T17:41:36.838Z,6.47
2018-08-24T17:44:05.139Z,4.53
2018-08-24T17:46:33.407Z,3.93
2018-08-24T17:49:01.843Z,3.90
2018-08-24T17:51:30.071Z,4.30
2018-08-24T17:53:58.284Z,3.87
2018-08-24T17:56:26.547Z,3.27
2018-08-24T17:58:54.803Z,5.43
2018-08-24T18:01:23.036Z,4.50
2018-08-24T18:03:51.272Z,6.70
2018-08-24T18:06:19.532Z,8.00
2018-08-24T18:08:47.751Z,4.87
2018-08-24T18:11:16.031Z,4.03
2018-08-24T18:13:44.271Z,3.60
2018-08-24T18:16:12.788Z,4.67
2018-08-24T18:18:40.993Z,2.40
2018-08-24T18:21:09.848Z,2.90
2018-08-24T18:23:40.892Z,5.67
2018-08-24T18:26:09.899Z,7.13
2018-08-24T18:28:38.187Z,4.37
2018-08-24T18:31:06.584Z,4.70
2018-08-24T18:33:34.756Z,5.33
2018-08-24T18:36:03.233Z,3.30
2018-08-24T18:38:31.567Z,3.17
2018-08-24T18:40:59.853Z,4.07
2018-08-24T18:43:28.036Z,4.07
2018-08-24T18:45:56.288Z,3.00
2018-08-24T18:48:24.623Z,4.43
2018-08-24T18:50:52.848Z,3.30
2018-08-24T18:53:21.092Z,2.53
2018-08-24T18:55:49.314Z,1.87
2018-08-24T18:58:18.459Z,4.27
2018-08-24T19:00:46.689Z,5.60
2018-08-24T19:03:14.918Z,2.67
2018-08-24T19:05:43.188Z,4.93
2018-08-24T19:08:12.416Z,1.73
2018-08-24T19:10:45.969Z,4.60
2018-08-24T19:13:14.890Z,3.47
2018-08-24T19:15:44.264Z,8.10
2018-08-24T19:18:17.845Z,3.57
2018-08-24T19:20:51.479Z,5.33
2018-08-24T19:23:19.458Z,3.33
2018-08-24T19:25:47.457Z,4.17
2018-08-24T19:28:20.926Z,3.20
2018-08-24T19:30:49.297Z,3.50
2018-08-24T19:33:18.124Z,6.23
2018-08-24T19:35:46.137Z,4.90
2018-08-24T19:38:14.108Z,3.90
2018-08-24T19:40:47.441Z,5.20
2018-08-24T19:43:15.430Z,3.93
2018-08-24T19:45:43.425Z,4.33
2018-08-24T19:48:16.989Z,4.90
2018-08-24T19:50:44.918Z,4.20
2018-08-24T19:53:12.939Z,2.87
2018-08-24T19:55:40.938Z,5.43
2018-08-24T19:58:14.261Z,3.47
2018-08-24T20:03:16.814Z,3.87
2018-08-24T20:05:49.186Z,5.93
2018-08-24T20:08:23.393Z,3.87
2018-08-24T20:10:51.475Z,4.10
2018-08-24T20:13:19.437Z,5.13
2018-08-24T20:15:52.922Z,5.63
2018-08-24T20:18:20.942Z,3.17
2018-08-24T20:20:49.157Z,4.27
2018-08-24T20:23:17.409Z,3.57
2018-08-24T20:25:45.393Z,2.30
2018-08-24T20:28:13.389Z,4.10
2018-08-24T20:30:41.425Z,4.70
2018-08-24T20:33:09.414Z,2.87
2018-08-24T20:35:37.366Z,3.77
2018-08-24T20:38:05.558Z,5.00
2018-08-24T20:40:33.770Z,3.73
2018-08-24T20:43:01.986Z,7.00
2018-08-24T20:45:29.962Z,4.70
2018-08-24T20:47:57.938Z,5.07
2018-08-24T20:50:25.955Z,5.73
2018-08-24T20:52:53.942Z,4.17
2018-08-24T20:55:21.961Z,2.43
2018-08-24T20:57:49.891Z,9.30
2018-08-24T21:00:18.610Z,3.70
2018-08-24T21:02:46.587Z,4.53
2018-08-24T21:05:14.558Z,4.23
2018-08-24T21:07:42.555Z,6.23
2018-08-24T21:10:10.522Z,3.40
2018-08-24T21:12:38.491Z,6.40
2018-08-24T21:15:06.569Z,4.90
2018-08-24T21:17:34.458Z,8.50
2018-08-24T21:20:02.522Z,3.77
2018-08-24T21:22:30.540Z,3.57
2018-08-24T21:24:58.546Z,5.10
2018-08-24T21:27:26.519Z,3.43
2018-08-24T21:29:54.504Z,6.57
2018-08-24T21:32:22.471Z,2.93
2018-08-24T21:34:50.491Z,2.77
2018-08-24T21:37:19.203Z,14.97
2018-08-24T21:39:47.184Z,3.57
2018-08-24T21:42:15.148Z,6.87
2018-08-24T21:44:43.122Z,4.53
2018-08-24T21:47:11.083Z,4.03
2018-08-24T21:49:39.028Z,3.40
2018-08-24T21:52:07.028Z,3.77
2018-08-24T21:54:35.042Z,6.10
2018-08-24T21:57:02.983Z,2.80
2018-08-24T21:59:30.955Z,2.93
2018-08-24T22:01:59.013Z,3.90
2018-08-24T22:04:27.388Z,6.67
2018-08-24T22:06:55.360Z,3.60
2018-08-24T22:09:23.328Z,3.83
2018-08-24T22:11:51.288Z,4.30
2018-08-24T22:14:19.456Z,6.17
2018-08-24T22:16:47.641Z,6.03
2018-08-24T22:19:15.540Z,5.17
2018-08-24T22:21:43.520Z,5.40
2018-08-24T22:24:11.495Z,7.37
2018-08-24T22:26:39.608Z,6.23
2018-08-24T22:29:07.592Z,3.67
2018-08-24T22:31:35.601Z,5.23
2018-08-24T22:34:03.588Z,1.87
2018-08-24T22:36:31.593Z,4.53
2018-08-24T22:38:59.551Z,3.73
2018-08-24T22:41:27.528Z,5.03
2018-08-24T22:43:55.495Z,2.83
2018-08-24T22:46:23.456Z,5.40
2018-08-24T22:48:51.540Z,2.97
2018-08-24T22:51:19.669Z,5.03
2018-08-24T22:53:47.623Z,5.03
2018-08-24T22:56:15.608Z,3.73
2018-08-24T22:58:43.640Z,5.33
2018-08-24T23:01:11.608Z,3.67
2018-08-24T23:03:39.662Z,4.53
2018-08-24T23:06:07.632Z,3.97
2018-08-24T23:08:35.591Z,5.40
2018-08-24T23:11:03.820Z,3.80
2018-08-24T23:13:35.052Z,4.03
2018-08-24T23:16:03.277Z,3.40
2018-08-24T23:18:31.497Z,4.27
2018-08-24T23:20:59.736Z,2.93
2018-08-24T23:23:27.997Z,3.93
2018-08-24T23:25:56.264Z,4.07
2018-08-24T23:28:24.546Z,2.63
2018-08-24T23:30:52.797Z,3.73
2018-08-24T23:33:21.048Z,5.13
2018-08-24T23:35:49.300Z,3.93
2018-08-24T23:38:17.629Z,2.57
2018-08-24T23:40:45.576Z,3.33
2018-08-24T23:43:13.542Z,4.53
2018-08-24T23:45:41.505Z,5.40
2018-08-24T23:48:09.457Z,2.73
2018-08-24T23:50:37.420Z,4.67
2018-08-24T23:53:05.392Z,3.13
2018-08-24T23:55:33.341Z,2.43
2018-08-24T23:58:01.321Z,4.17
